sensor_id;sensor_type;location;lat;lon;timestamp;temperature;humidity
52867;DHT22;38739;53.324;6.862;2023-04-28T00:01:42;6.00;99.90
52867;DHT22;38739;53.324;6.862;2023-04-28T00:04:09;6.00;99.90
52867;DHT22;38739;53.324;6.862;2023-04-28T00:06:35;6.10;99.90
52867;DHT22;38739;53.324;6.862;2023-04-28T00:09:01;6.10;99.90
52867;DHT22;38739;53.324;6.862;2023-04-28T00:11:28;6.10;99.90
52867;DHT22;38739;53.324;6.862;2023-04-28T00:13:53;6.10;99.90
52867;DHT22;38739;53.324;6.862;2023-04-28T00:16:19;6.10;99.90
52867;DHT22;38739;53.324;6.862;2023-04-28T00:18:46;6.10;99.90
52867;DHT22;38739;53.324;6.862;2023-04-28T00:21:12;6.00;99.90
52867;DHT22;38739;53.324;6.862;2023-04-28T00:23:37;6.00;99.90
52867;DHT22;38739;53.324;6.862;2023-04-28T00:26:03;6.00;99.90
52867;DHT22;38739;53.324;6.862;2023-04-28T00:28:29;6.00;99.90
52867;DHT22;38739;53.324;6.862;2023-04-28T00:30:54;6.00;99.90
52867;DHT22;38739;53.324;6.862;2023-04-28T00:33:20;5.90;99.90
52867;DHT22;38739;53.324;6.862;2023-04-28T00:35:46;5.90;99.90
52867;DHT22;38739;53.324;6.862;2023-04-28T00:38:11;5.90;99.90
52867;DHT22;38739;53.324;6.862;2023-04-28T00:40:38;5.90;99.90
52867;DHT22;38739;53.324;6.862;2023-04-28T00:43:04;5.90;99.90
52867;DHT22;38739;53.324;6.862;2023-04-28T00:45:31;5.80;99.90
52867;DHT22;38739;53.324;6.862;2023-04-28T00:47:57;5.80;99.90
52867;DHT22;38739;53.324;6.862;2023-04-28T00:50:24;5.80;99.90
52867;DHT22;38739;53.324;6.862;2023-04-28T00:52:51;5.70;99.90
52867;DHT22;38739;53.324;6.862;2023-04-28T00:55:17;5.80;99.90
52867;DHT22;38739;53.324;6.862;2023-04-28T00:57:44;5.80;99.90
52867;DHT22;38739;53.324;6.862;2023-04-28T01:00:10;5.70;99.90
52867;DHT22;38739;53.324;6.862;2023-04-28T01:02:36;5.70;99.90
52867;DHT22;38739;53.324;6.862;2023-04-28T01:05:02;5.70;99.90
52867;DHT22;38739;53.324;6.862;2023-04-28T01:07:28;5.70;99.90
52867;DHT22;38739;53.324;6.862;2023-04-28T01:09:55;5.70;99.90
52867;DHT22;38739;53.324;6.862;2023-04-28T01:12:21;5.70;99.90
52867;DHT22;38739;53.324;6.862;2023-04-28T01:14:50;5.70;99.90
52867;DHT22;38739;53.324;6.862;2023-04-28T01:17:16;5.70;99.90
52867;DHT22;38739;53.324;6.862;2023-04-28T01:19:42;5.70;99.90
52867;DHT22;38739;53.324;6.862;2023-04-28T01:22:08;5.70;99.90
52867;DHT22;38739;53.324;6.862;2023-04-28T01:24:39;5.60;99.90
52867;DHT22;38739;53.324;6.862;2023-04-28T01:27:05;5.60;99.90
52867;DHT22;38739;53.324;6.862;2023-04-28T01:29:31;5.70;99.90
52867;DHT22;38739;53.324;6.862;2023-04-28T01:31:56;5.70;99.90
52867;DHT22;38739;53.324;6.862;2023-04-28T01:34:22;5.60;99.90
52867;DHT22;38739;53.324;6.862;2023-04-28T01:36:48;5.60;99.90
52867;DHT22;38739;53.324;6.862;2023-04-28T01:39:13;5.60;99.90
52867;DHT22;38739;53.324;6.862;2023-04-28T01:41:39;5.70;99.90
52867;DHT22;38739;53.324;6.862;2023-04-28T01:44:05;5.70;99.90
52867;DHT22;38739;53.324;6.862;2023-04-28T01:46:33;5.70;99.90
52867;DHT22;38739;53.324;6.862;2023-04-28T01:49:00;5.70;99.90
52867;DHT22;38739;53.324;6.862;2023-04-28T01:51:25;5.70;99.90
52867;DHT22;38739;53.324;6.862;2023-04-28T01:53:51;5.80;99.90
52867;DHT22;38739;53.324;6.862;2023-04-28T01:56:17;5.80;99.90
52867;DHT22;38739;53.324;6.862;2023-04-28T01:58:43;5.80;99.90
52867;DHT22;38739;53.324;6.862;2023-04-28T02:01:08;5.70;99.90
52867;DHT22;38739;53.324;6.862;2023-04-28T02:03:34;5.80;99.90
52867;DHT22;38739;53.324;6.862;2023-04-28T02:06:00;5.80;99.90
52867;DHT22;38739;53.324;6.862;2023-04-28T02:08:25;5.90;99.90
52867;DHT22;38739;53.324;6.862;2023-04-28T02:10:51;5.90;99.90
52867;DHT22;38739;53.324;6.862;2023-04-28T02:13:17;5.90;99.90
52867;DHT22;38739;53.324;6.862;2023-04-28T02:15:43;5.90;99.90
52867;DHT22;38739;53.324;6.862;2023-04-28T02:18:09;6.00;99.90
52867;DHT22;38739;53.324;6.862;2023-04-28T02:20:35;6.00;99.90
52867;DHT22;38739;53.324;6.862;2023-04-28T02:23:00;6.00;99.90
52867;DHT22;38739;53.324;6.862;2023-04-28T02:25:26;6.00;99.90
52867;DHT22;38739;53.324;6.862;2023-04-28T02:27:52;6.00;99.90
52867;DHT22;38739;53.324;6.862;2023-04-28T02:30:18;6.10;99.90
52867;DHT22;38739;53.324;6.862;2023-04-28T02:32:43;6.10;99.90
52867;DHT22;38739;53.324;6.862;2023-04-28T02:35:09;6.10;99.90
52867;DHT22;38739;53.324;6.862;2023-04-28T02:37:34;6.10;99.90
52867;DHT22;38739;53.324;6.862;2023-04-28T02:40:00;6.00;99.90
52867;DHT22;38739;53.324;6.862;2023-04-28T02:42:26;6.00;99.90
52867;DHT22;38739;53.324;6.862;2023-04-28T02:44:52;6.00;99.90
52867;DHT22;38739;53.324;6.862;2023-04-28T02:47:18;6.00;99.90
52867;DHT22;38739;53.324;6.862;2023-04-28T02:49:44;6.00;99.90
52867;DHT22;38739;53.324;6.862;2023-04-28T02:52:10;5.90;99.90
52867;DHT22;38739;53.324;6.862;2023-04-28T02:54:35;6.00;99.90
52867;DHT22;38739;53.324;6.862;2023-04-28T02:57:01;5.90;99.90
52867;DHT22;38739;53.324;6.862;2023-04-28T02:59:29;5.90;99.90
52867;DHT22;38739;53.324;6.862;2023-04-28T03:01:55;5.90;99.90
52867;DHT22;38739;53.324;6.862;2023-04-28T03:04:21;5.90;99.90
52867;DHT22;38739;53.324;6.862;2023-04-28T03:06:47;5.80;99.90
52867;DHT22;38739;53.324;6.862;2023-04-28T03:09:13;5.80;99.90
52867;DHT22;38739;53.324;6.862;2023-04-28T03:11:39;5.80;99.90
52867;DHT22;38739;53.324;6.862;2023-04-28T03:14:06;5.80;99.90
52867;DHT22;38739;53.324;6.862;2023-04-28T03:16:32;5.70;99.90
52867;DHT22;38739;53.324;6.862;2023-04-28T03:18:58;5.70;99.90
52867;DHT22;38739;53.324;6.862;2023-04-28T03:21:23;5.70;99.90
52867;DHT22;38739;53.324;6.862;2023-04-28T03:23:52;5.70;99.90
52867;DHT22;38739;53.324;6.862;2023-04-28T03:26:18;5.60;99.90
52867;DHT22;38739;53.324;6.862;2023-04-28T03:28:43;5.60;99.90
52867;DHT22;38739;53.324;6.862;2023-04-28T03:31:09;5.60;99.90
52867;DHT22;38739;53.324;6.862;2023-04-28T03:33:35;5.60;99.90
52867;DHT22;38739;53.324;6.862;2023-04-28T03:36:01;5.60;99.90
52867;DHT22;38739;53.324;6.862;2023-04-28T03:38:26;5.60;99.90
52867;DHT22;38739;53.324;6.862;2023-04-28T03:40:52;5.60;99.90
52867;DHT22;38739;53.324;6.862;2023-04-28T03:43:18;5.60;99.90
52867;DHT22;38739;53.324;6.862;2023-04-28T03:45:44;5.60;99.90
52867;DHT22;38739;53.324;6.862;2023-04-28T03:48:10;5.60;99.90
52867;DHT22;38739;53.324;6.862;2023-04-28T03:50:35;5.60;99.90
52867;DHT22;38739;53.324;6.862;2023-04-28T03:53:01;5.60;99.90
52867;DHT22;38739;53.324;6.862;2023-04-28T03:55:27;5.60;99.90
52867;DHT22;38739;53.324;6.862;2023-04-28T03:57:53;5.60;99.90
52867;DHT22;38739;53.324;6.862;2023-04-28T04:00:19;5.60;99.90
52867;DHT22;38739;53.324;6.862;2023-04-28T04:02:44;5.60;99.90
52867;DHT22;38739;53.324;6.862;2023-04-28T04:05:11;5.60;99.90
52867;DHT22;38739;53.324;6.862;2023-04-28T04:07:36;5.60;99.90
52867;DHT22;38739;53.324;6.862;2023-04-28T04:10:02;5.60;99.90
52867;DHT22;38739;53.324;6.862;2023-04-28T04:12:28;5.60;99.90
52867;DHT22;38739;53.324;6.862;2023-04-28T04:14:53;5.60;99.90
52867;DHT22;38739;53.324;6.862;2023-04-28T04:17:19;5.60;99.90
52867;DHT22;38739;53.324;6.862;2023-04-28T04:19:45;5.60;99.90
52867;DHT22;38739;53.324;6.862;2023-04-28T04:22:11;5.60;99.90
52867;DHT22;38739;53.324;6.862;2023-04-28T04:24:36;5.60;99.90
52867;DHT22;38739;53.324;6.862;2023-04-28T04:27:02;5.60;99.90
52867;DHT22;38739;53.324;6.862;2023-04-28T04:29:28;5.60;99.90
52867;DHT22;38739;53.324;6.862;2023-04-28T04:31:53;5.50;99.90
52867;DHT22;38739;53.324;6.862;2023-04-28T04:34:19;5.50;99.90
52867;DHT22;38739;53.324;6.862;2023-04-28T04:36:45;5.60;99.90
52867;DHT22;38739;53.324;6.862;2023-04-28T04:39:10;5.50;99.90
52867;DHT22;38739;53.324;6.862;2023-04-28T04:41:36;5.60;99.90
52867;DHT22;38739;53.324;6.862;2023-04-28T04:44:02;5.60;99.90
52867;DHT22;38739;53.324;6.862;2023-04-28T04:46:28;5.60;99.90
52867;DHT22;38739;53.324;6.862;2023-04-28T04:48:54;5.60;99.90
52867;DHT22;38739;53.324;6.862;2023-04-28T04:51:26;5.60;99.90
52867;DHT22;38739;53.324;6.862;2023-04-28T04:53:52;5.60;99.90
52867;DHT22;38739;53.324;6.862;2023-04-28T04:56:18;5.60;99.90
52867;DHT22;38739;53.324;6.862;2023-04-28T04:58:44;5.70;99.90
52867;DHT22;38739;53.324;6.862;2023-04-28T05:01:09;5.70;99.90
52867;DHT22;38739;53.324;6.862;2023-04-28T05:03:35;5.70;99.90
52867;DHT22;38739;53.324;6.862;2023-04-28T05:06:01;5.80;99.90
52867;DHT22;38739;53.324;6.862;2023-04-28T05:08:27;5.80;99.90
52867;DHT22;38739;53.324;6.862;2023-04-28T05:10:53;5.90;99.90
52867;DHT22;38739;53.324;6.862;2023-04-28T05:13:19;5.90;99.90
52867;DHT22;38739;53.324;6.862;2023-04-28T05:15:45;5.90;99.90
52867;DHT22;38739;53.324;6.862;2023-04-28T05:18:10;6.00;99.90
52867;DHT22;38739;53.324;6.862;2023-04-28T05:20:38;6.10;99.90
52867;DHT22;38739;53.324;6.862;2023-04-28T05:23:04;6.10;99.90
52867;DHT22;38739;53.324;6.862;2023-04-28T05:25:30;6.10;99.90
52867;DHT22;38739;53.324;6.862;2023-04-28T05:27:56;6.20;99.90
52867;DHT22;38739;53.324;6.862;2023-04-28T05:30:21;6.20;99.90
52867;DHT22;38739;53.324;6.862;2023-04-28T05:32:47;6.30;99.90
52867;DHT22;38739;53.324;6.862;2023-04-28T05:35:13;6.40;99.90
52867;DHT22;38739;53.324;6.862;2023-04-28T05:37:39;6.50;99.90
52867;DHT22;38739;53.324;6.862;2023-04-28T05:40:08;6.50;99.90
52867;DHT22;38739;53.324;6.862;2023-04-28T05:42:34;6.60;99.90
52867;DHT22;38739;53.324;6.862;2023-04-28T05:45:00;6.70;99.90
52867;DHT22;38739;53.324;6.862;2023-04-28T05:47:25;6.70;99.90
52867;DHT22;38739;53.324;6.862;2023-04-28T05:49:51;6.80;99.90
52867;DHT22;38739;53.324;6.862;2023-04-28T05:52:17;6.80;99.90
52867;DHT22;38739;53.324;6.862;2023-04-28T05:54:42;6.80;99.90
52867;DHT22;38739;53.324;6.862;2023-04-28T05:57:08;6.90;99.90
52867;DHT22;38739;53.324;6.862;2023-04-28T05:59:34;6.90;99.90
52867;DHT22;38739;53.324;6.862;2023-04-28T06:01:59;7.00;99.90
52867;DHT22;38739;53.324;6.862;2023-04-28T06:04:25;7.00;99.90
52867;DHT22;38739;53.324;6.862;2023-04-28T06:06:51;7.00;99.90
52867;DHT22;38739;53.324;6.862;2023-04-28T06:09:17;7.10;99.90
52867;DHT22;38739;53.324;6.862;2023-04-28T06:11:42;7.10;99.90
52867;DHT22;38739;53.324;6.862;2023-04-28T06:14:08;7.10;99.90
52867;DHT22;38739;53.324;6.862;2023-04-28T06:16:34;7.20;99.90
52867;DHT22;38739;53.324;6.862;2023-04-28T06:18:59;7.20;99.90
52867;DHT22;38739;53.324;6.862;2023-04-28T06:21:25;7.20;99.90
52867;DHT22;38739;53.324;6.862;2023-04-28T06:23:53;7.30;99.90
52867;DHT22;38739;53.324;6.862;2023-04-28T06:26:19;7.30;99.90
52867;DHT22;38739;53.324;6.862;2023-04-28T06:28:45;7.30;99.90
52867;DHT22;38739;53.324;6.862;2023-04-28T06:31:11;7.40;99.90
52867;DHT22;38739;53.324;6.862;2023-04-28T06:33:36;7.40;99.90
52867;DHT22;38739;53.324;6.862;2023-04-28T06:36:02;7.40;99.90
52867;DHT22;38739;53.324;6.862;2023-04-28T06:38:28;7.40;99.90
52867;DHT22;38739;53.324;6.862;2023-04-28T06:40:54;7.40;99.90
52867;DHT22;38739;53.324;6.862;2023-04-28T06:43:19;7.50;99.90
52867;DHT22;38739;53.324;6.862;2023-04-28T06:45:45;7.60;99.90
52867;DHT22;38739;53.324;6.862;2023-04-28T06:48:11;7.60;99.90
52867;DHT22;38739;53.324;6.862;2023-04-28T06:50:37;7.60;99.90
52867;DHT22;38739;53.324;6.862;2023-04-28T06:53:03;7.60;99.90
52867;DHT22;38739;53.324;6.862;2023-04-28T06:55:28;7.70;99.90
52867;DHT22;38739;53.324;6.862;2023-04-28T06:57:54;7.70;99.90
52867;DHT22;38739;53.324;6.862;2023-04-28T07:00:20;7.80;99.90
52867;DHT22;38739;53.324;6.862;2023-04-28T07:02:46;7.80;99.90
52867;DHT22;38739;53.324;6.862;2023-04-28T07:05:11;7.90;99.90
52867;DHT22;38739;53.324;6.862;2023-04-28T07:07:38;7.90;99.90
52867;DHT22;38739;53.324;6.862;2023-04-28T07:10:05;8.00;99.90
52867;DHT22;38739;53.324;6.862;2023-04-28T07:12:30;8.10;99.90
52867;DHT22;38739;53.324;6.862;2023-04-28T07:14:56;8.20;99.90
52867;DHT22;38739;53.324;6.862;2023-04-28T07:17:22;8.30;99.90
52867;DHT22;38739;53.324;6.862;2023-04-28T07:19:47;8.30;99.90
52867;DHT22;38739;53.324;6.862;2023-04-28T07:22:15;8.40;99.90
52867;DHT22;38739;53.324;6.862;2023-04-28T07:24:41;8.50;99.90
52867;DHT22;38739;53.324;6.862;2023-04-28T07:27:07;8.60;99.90
52867;DHT22;38739;53.324;6.862;2023-04-28T07:29:33;8.70;99.90
52867;DHT22;38739;53.324;6.862;2023-04-28T07:32:02;8.90;99.90
52867;DHT22;38739;53.324;6.862;2023-04-28T07:34:34;8.90;99.90
52867;DHT22;38739;53.324;6.862;2023-04-28T07:37:00;9.00;99.90
52867;DHT22;38739;53.324;6.862;2023-04-28T07:39:27;9.00;99.90
52867;DHT22;38739;53.324;6.862;2023-04-28T07:41:53;9.10;99.90
52867;DHT22;38739;53.324;6.862;2023-04-28T07:44:18;9.10;99.90
52867;DHT22;38739;53.324;6.862;2023-04-28T07:46:44;9.20;99.90
52867;DHT22;38739;53.324;6.862;2023-04-28T07:49:10;9.20;99.90
52867;DHT22;38739;53.324;6.862;2023-04-28T07:51:36;9.20;99.90
52867;DHT22;38739;53.324;6.862;2023-04-28T07:54:01;9.20;99.90
52867;DHT22;38739;53.324;6.862;2023-04-28T07:56:27;9.30;99.90
52867;DHT22;38739;53.324;6.862;2023-04-28T07:58:53;9.30;99.90
52867;DHT22;38739;53.324;6.862;2023-04-28T08:01:18;9.20;99.90
52867;DHT22;38739;53.324;6.862;2023-04-28T08:03:44;9.20;99.90
52867;DHT22;38739;53.324;6.862;2023-04-28T08:06:10;9.30;99.90
52867;DHT22;38739;53.324;6.862;2023-04-28T08:08:36;9.30;99.90
52867;DHT22;38739;53.324;6.862;2023-04-28T08:11:01;9.30;99.90
52867;DHT22;38739;53.324;6.862;2023-04-28T08:13:27;9.40;99.90
52867;DHT22;38739;53.324;6.862;2023-04-28T08:15:54;9.30;99.90
52867;DHT22;38739;53.324;6.862;2023-04-28T08:18:24;9.30;99.90
52867;DHT22;38739;53.324;6.862;2023-04-28T08:20:50;9.30;99.90
52867;DHT22;38739;53.324;6.862;2023-04-28T08:23:16;9.30;99.90
52867;DHT22;38739;53.324;6.862;2023-04-28T08:25:42;9.30;99.90
52867;DHT22;38739;53.324;6.862;2023-04-28T08:28:07;9.30;99.90
52867;DHT22;38739;53.324;6.862;2023-04-28T08:30:33;9.30;99.90
52867;DHT22;38739;53.324;6.862;2023-04-28T08:32:59;9.30;99.90
52867;DHT22;38739;53.324;6.862;2023-04-28T08:35:25;9.40;99.90
52867;DHT22;38739;53.324;6.862;2023-04-28T08:37:51;9.40;99.90
52867;DHT22;38739;53.324;6.862;2023-04-28T08:40:18;9.30;99.90
52867;DHT22;38739;53.324;6.862;2023-04-28T08:42:43;9.30;99.90
52867;DHT22;38739;53.324;6.862;2023-04-28T08:45:13;9.30;99.90
52867;DHT22;38739;53.324;6.862;2023-04-28T08:47:39;9.40;99.90
52867;DHT22;38739;53.324;6.862;2023-04-28T08:50:15;9.30;99.90
52867;DHT22;38739;53.324;6.862;2023-04-28T08:52:46;9.40;99.90
52867;DHT22;38739;53.324;6.862;2023-04-28T08:55:12;9.30;99.90
52867;DHT22;38739;53.324;6.862;2023-04-28T08:57:48;9.30;99.90
52867;DHT22;38739;53.324;6.862;2023-04-28T09:00:14;9.30;99.90
52867;DHT22;38739;53.324;6.862;2023-04-28T09:02:40;9.40;99.90
52867;DHT22;38739;53.324;6.862;2023-04-28T09:05:07;9.40;99.90
52867;DHT22;38739;53.324;6.862;2023-04-28T09:07:34;9.40;99.90
52867;DHT22;38739;53.324;6.862;2023-04-28T09:12:44;9.60;99.90
52867;DHT22;38739;53.324;6.862;2023-04-28T09:15:10;9.50;99.90
52867;DHT22;38739;53.324;6.862;2023-04-28T09:17:49;9.60;99.90
52867;DHT22;38739;53.324;6.862;2023-04-28T09:20:20;9.60;99.90
52867;DHT22;38739;53.324;6.862;2023-04-28T09:22:48;9.60;99.90
52867;DHT22;38739;53.324;6.862;2023-04-28T09:25:15;9.60;99.90
52867;DHT22;38739;53.324;6.862;2023-04-28T09:27:41;9.60;99.90
52867;DHT22;38739;53.324;6.862;2023-04-28T09:30:07;9.60;99.90
52867;DHT22;38739;53.324;6.862;2023-04-28T09:32:34;9.50;99.90
52867;DHT22;38739;53.324;6.862;2023-04-28T09:35:01;9.50;99.90
52867;DHT22;38739;53.324;6.862;2023-04-28T09:37:28;9.60;99.90
52867;DHT22;38739;53.324;6.862;2023-04-28T09:40:03;9.60;99.90
52867;DHT22;38739;53.324;6.862;2023-04-28T09:44:59;9.70;99.90
52867;DHT22;38739;53.324;6.862;2023-04-28T09:47:26;9.80;99.90
52867;DHT22;38739;53.324;6.862;2023-04-28T09:49:56;9.80;99.90
52867;DHT22;38739;53.324;6.862;2023-04-28T09:52:25;9.80;99.90
52867;DHT22;38739;53.324;6.862;2023-04-28T09:54:53;9.90;99.90
52867;DHT22;38739;53.324;6.862;2023-04-28T09:57:19;10.00;99.90
52867;DHT22;38739;53.324;6.862;2023-04-28T09:59:48;10.20;99.90
52867;DHT22;38739;53.324;6.862;2023-04-28T10:02:16;10.50;99.90
52867;DHT22;38739;53.324;6.862;2023-04-28T10:04:47;10.80;99.90
52867;DHT22;38739;53.324;6.862;2023-04-28T10:07:14;11.30;99.90
52867;DHT22;38739;53.324;6.862;2023-04-28T10:09:46;12.00;99.90
52867;DHT22;38739;53.324;6.862;2023-04-28T10:12:16;12.60;99.90
52867;DHT22;38739;53.324;6.862;2023-04-28T10:14:42;13.30;99.90
52867;DHT22;38739;53.324;6.862;2023-04-28T10:17:10;13.60;99.90
52867;DHT22;38739;53.324;6.862;2023-04-28T10:19:40;13.70;99.90
52867;DHT22;38739;53.324;6.862;2023-04-28T10:25:11;14.30;99.90
52867;DHT22;38739;53.324;6.862;2023-04-28T10:27:44;14.50;99.90
52867;DHT22;38739;53.324;6.862;2023-04-28T10:32:40;14.90;99.90
52867;DHT22;38739;53.324;6.862;2023-04-28T10:38:11;15.10;99.90
52867;DHT22;38739;53.324;6.862;2023-04-28T10:40:44;15.00;99.90
52867;DHT22;38739;53.324;6.862;2023-04-28T10:43:11;14.80;99.90
52867;DHT22;38739;53.324;6.862;2023-04-28T10:48:22;14.60;99.90
52867;DHT22;38739;53.324;6.862;2023-04-28T10:56:24;14.40;99.90
52867;DHT22;38739;53.324;6.862;2023-04-28T10:58:57;14.30;99.90
52867;DHT22;38739;53.324;6.862;2023-04-28T11:01:30;14.10;99.90
52867;DHT22;38739;53.324;6.862;2023-04-28T11:06:27;14.00;99.90
52867;DHT22;38739;53.324;6.862;2023-04-28T11:11:29;13.80;99.90
52867;DHT22;38739;53.324;6.862;2023-04-28T11:16:58;13.70;99.90
52867;DHT22;38739;53.324;6.862;2023-04-28T11:21:52;13.60;99.90
52867;DHT22;38739;53.324;6.862;2023-04-28T11:24:20;13.50;99.90
52867;DHT22;38739;53.324;6.862;2023-04-28T11:26:47;13.30;99.90
52867;DHT22;38739;53.324;6.862;2023-04-28T11:29:13;13.20;99.90
52867;DHT22;38739;53.324;6.862;2023-04-28T11:31:48;13.10;99.90
52867;DHT22;38739;53.324;6.862;2023-04-28T11:34:19;13.00;99.90
52867;DHT22;38739;53.324;6.862;2023-04-28T11:36:45;12.90;99.90
52867;DHT22;38739;53.324;6.862;2023-04-28T11:39:12;12.80;99.90
52867;DHT22;38739;53.324;6.862;2023-04-28T11:41:44;12.70;99.90
52867;DHT22;38739;53.324;6.862;2023-04-28T11:44:15;12.70;99.90
52867;DHT22;38739;53.324;6.862;2023-04-28T11:46:45;12.60;99.90
52867;DHT22;38739;53.324;6.862;2023-04-28T11:49:15;12.50;99.90
52867;DHT22;38739;53.324;6.862;2023-04-28T11:51:41;12.50;99.90
52867;DHT22;38739;53.324;6.862;2023-04-28T11:54:09;12.40;99.90
52867;DHT22;38739;53.324;6.862;2023-04-28T11:56:41;12.40;99.90
52867;DHT22;38739;53.324;6.862;2023-04-28T11:59:09;12.40;99.90
52867;DHT22;38739;53.324;6.862;2023-04-28T12:01:49;12.30;99.90
52867;DHT22;38739;53.324;6.862;2023-04-28T12:07:10;12.40;99.90
52867;DHT22;38739;53.324;6.862;2023-04-28T12:09:39;12.40;99.90
52867;DHT22;38739;53.324;6.862;2023-04-28T12:14:54;12.50;99.90
52867;DHT22;38739;53.324;6.862;2023-04-28T12:17:30;12.50;99.90
52867;DHT22;38739;53.324;6.862;2023-04-28T12:19:58;12.50;99.90
52867;DHT22;38739;53.324;6.862;2023-04-28T12:22:25;12.60;99.90
52867;DHT22;38739;53.324;6.862;2023-04-28T12:25:08;12.60;99.90
52867;DHT22;38739;53.324;6.862;2023-04-28T12:27:35;12.50;99.90
52867;DHT22;38739;53.324;6.862;2023-04-28T12:30:23;12.50;99.90
52867;DHT22;38739;53.324;6.862;2023-04-28T12:32:49;12.50;99.90
52867;DHT22;38739;53.324;6.862;2023-04-28T12:35:16;12.40;99.90
52867;DHT22;38739;53.324;6.862;2023-04-28T12:37:43;12.40;99.90
52867;DHT22;38739;53.324;6.862;2023-04-28T12:40:09;12.40;99.90
52867;DHT22;38739;53.324;6.862;2023-04-28T12:42:35;12.40;99.90
52867;DHT22;38739;53.324;6.862;2023-04-28T12:45:01;12.40;99.90
52867;DHT22;38739;53.324;6.862;2023-04-28T12:47:28;12.40;99.90
52867;DHT22;38739;53.324;6.862;2023-04-28T12:49:53;12.30;99.90
52867;DHT22;38739;53.324;6.862;2023-04-28T12:52:19;12.30;99.90
52867;DHT22;38739;53.324;6.862;2023-04-28T12:54:46;12.30;99.90
52867;DHT22;38739;53.324;6.862;2023-04-28T12:57:12;12.20;99.90
52867;DHT22;38739;53.324;6.862;2023-04-28T12:59:38;12.20;99.90
52867;DHT22;38739;53.324;6.862;2023-04-28T13:02:04;12.10;99.90
52867;DHT22;38739;53.324;6.862;2023-04-28T13:04:30;12.10;99.90
52867;DHT22;38739;53.324;6.862;2023-04-28T13:06:57;12.10;99.90
52867;DHT22;38739;53.324;6.862;2023-04-28T13:09:23;12.00;99.90
52867;DHT22;38739;53.324;6.862;2023-04-28T13:11:49;12.00;99.90
52867;DHT22;38739;53.324;6.862;2023-04-28T13:14:15;12.00;99.90
52867;DHT22;38739;53.324;6.862;2023-04-28T13:16:41;11.90;99.90
52867;DHT22;38739;53.324;6.862;2023-04-28T13:19:06;11.90;99.90
52867;DHT22;38739;53.324;6.862;2023-04-28T13:21:35;11.90;99.90
52867;DHT22;38739;53.324;6.862;2023-04-28T13:24:03;11.90;99.90
52867;DHT22;38739;53.324;6.862;2023-04-28T13:26:29;11.90;99.90
52867;DHT22;38739;53.324;6.862;2023-04-28T13:28:54;11.90;99.90
52867;DHT22;38739;53.324;6.862;2023-04-28T13:31:20;11.90;99.90
52867;DHT22;38739;53.324;6.862;2023-04-28T13:33:46;11.90;99.90
52867;DHT22;38739;53.324;6.862;2023-04-28T13:36:12;11.80;99.90
52867;DHT22;38739;53.324;6.862;2023-04-28T13:38:37;11.80;99.90
52867;DHT22;38739;53.324;6.862;2023-04-28T13:41:03;11.80;99.90
52867;DHT22;38739;53.324;6.862;2023-04-28T13:43:29;11.80;99.90
52867;DHT22;38739;53.324;6.862;2023-04-28T13:45:56;11.80;99.90
52867;DHT22;38739;53.324;6.862;2023-04-28T13:48:21;11.80;99.90
52867;DHT22;38739;53.324;6.862;2023-04-28T13:50:48;11.70;99.90
52867;DHT22;38739;53.324;6.862;2023-04-28T13:53:14;11.70;99.90
52867;DHT22;38739;53.324;6.862;2023-04-28T13:55:40;11.60;99.90
52867;DHT22;38739;53.324;6.862;2023-04-28T13:58:05;11.60;99.90
52867;DHT22;38739;53.324;6.862;2023-04-28T14:00:32;11.60;99.90
52867;DHT22;38739;53.324;6.862;2023-04-28T14:02:58;11.60;99.90
52867;DHT22;38739;53.324;6.862;2023-04-28T14:05:24;11.50;99.90
52867;DHT22;38739;53.324;6.862;2023-04-28T14:07:53;11.50;99.90
52867;DHT22;38739;53.324;6.862;2023-04-28T14:10:19;11.50;99.90
52867;DHT22;38739;53.324;6.862;2023-04-28T14:12:44;11.40;99.90
52867;DHT22;38739;53.324;6.862;2023-04-28T14:15:10;11.40;99.90
52867;DHT22;38739;53.324;6.862;2023-04-28T14:17:36;11.30;99.90
52867;DHT22;38739;53.324;6.862;2023-04-28T14:20:03;11.30;99.90
52867;DHT22;38739;53.324;6.862;2023-04-28T14:22:28;11.30;99.90
52867;DHT22;38739;53.324;6.862;2023-04-28T14:24:54;11.30;99.90
52867;DHT22;38739;53.324;6.862;2023-04-28T14:27:20;11.20;99.90
52867;DHT22;38739;53.324;6.862;2023-04-28T14:29:46;11.20;99.90
52867;DHT22;38739;53.324;6.862;2023-04-28T14:32:16;11.10;99.90
52867;DHT22;38739;53.324;6.862;2023-04-28T14:34:48;11.10;99.90
52867;DHT22;38739;53.324;6.862;2023-04-28T14:37:14;11.10;99.90
52867;DHT22;38739;53.324;6.862;2023-04-28T14:39:42;11.10;99.90
52867;DHT22;38739;53.324;6.862;2023-04-28T14:42:08;11.00;99.90
52867;DHT22;38739;53.324;6.862;2023-04-28T14:44:34;11.00;99.90
52867;DHT22;38739;53.324;6.862;2023-04-28T14:47:00;11.00;99.90
52867;DHT22;38739;53.324;6.862;2023-04-28T14:49:26;11.00;99.90
52867;DHT22;38739;53.324;6.862;2023-04-28T14:51:52;11.00;99.90
52867;DHT22;38739;53.324;6.862;2023-04-28T14:54:21;10.90;99.90
52867;DHT22;38739;53.324;6.862;2023-04-28T14:56:48;10.90;99.90
52867;DHT22;38739;53.324;6.862;2023-04-28T14:59:14;10.90;99.90
52867;DHT22;38739;53.324;6.862;2023-04-28T15:01:40;10.90;99.90
52867;DHT22;38739;53.324;6.862;2023-04-28T15:04:06;10.90;99.90
52867;DHT22;38739;53.324;6.862;2023-04-28T15:06:34;10.90;99.90
52867;DHT22;38739;53.324;6.862;2023-04-28T15:08:59;10.90;99.90
52867;DHT22;38739;53.324;6.862;2023-04-28T15:11:25;10.90;99.90
52867;DHT22;38739;53.324;6.862;2023-04-28T15:13:51;10.90;99.90
52867;DHT22;38739;53.324;6.862;2023-04-28T15:16:17;10.90;99.90
52867;DHT22;38739;53.324;6.862;2023-04-28T15:18:43;10.90;99.90
52867;DHT22;38739;53.324;6.862;2023-04-28T15:21:10;10.90;99.90
52867;DHT22;38739;53.324;6.862;2023-04-28T15:23:36;10.90;99.90
52867;DHT22;38739;53.324;6.862;2023-04-28T15:26:02;10.90;99.90
52867;DHT22;38739;53.324;6.862;2023-04-28T15:28:30;10.90;99.90
52867;DHT22;38739;53.324;6.862;2023-04-28T15:30:55;10.90;99.90
52867;DHT22;38739;53.324;6.862;2023-04-28T15:33:21;10.80;99.90
52867;DHT22;38739;53.324;6.862;2023-04-28T15:35:48;10.80;99.90
52867;DHT22;38739;53.324;6.862;2023-04-28T15:38:14;10.80;99.90
52867;DHT22;38739;53.324;6.862;2023-04-28T15:40:41;10.80;99.90
52867;DHT22;38739;53.324;6.862;2023-04-28T15:43:09;10.70;99.90
52867;DHT22;38739;53.324;6.862;2023-04-28T15:45:34;10.70;99.90
52867;DHT22;38739;53.324;6.862;2023-04-28T15:48:01;10.70;99.90
52867;DHT22;38739;53.324;6.862;2023-04-28T15:50:29;10.70;99.90
52867;DHT22;38739;53.324;6.862;2023-04-28T15:52:55;10.80;99.90
52867;DHT22;38739;53.324;6.862;2023-04-28T15:55:21;10.80;99.90
52867;DHT22;38739;53.324;6.862;2023-04-28T15:57:48;10.80;99.90
52867;DHT22;38739;53.324;6.862;2023-04-28T16:00:14;10.90;99.90
52867;DHT22;38739;53.324;6.862;2023-04-28T16:02:41;11.10;99.90
52867;DHT22;38739;53.324;6.862;2023-04-28T16:05:07;11.20;99.90
52867;DHT22;38739;53.324;6.862;2023-04-28T16:07:34;11.20;99.90
52867;DHT22;38739;53.324;6.862;2023-04-28T16:10:04;11.30;99.90
52867;DHT22;38739;53.324;6.862;2023-04-28T16:12:30;11.30;99.90
52867;DHT22;38739;53.324;6.862;2023-04-28T16:14:55;11.30;99.90